Time;durP1;ratioP1;P1;durP2;ratioP2;P2;SDS_P1;SDS_P2;PMS_P1;PMS_P2;Temp;Humidity;BMP_temperature;BMP_pressure;BME280_temperature;BME280_humidity;BME280_pressure;Samples;Min_cycle;Max_cycle;Signal;HPM_P1;HPM_P2
2021/11/01 00:01:05;;;;;;;8.52;6.68;;;11.10;92.10;;;;;;4971170;28;20031;-74
2021/11/01 00:03:31;;;;;;;7.60;5.93;;;11.00;92.10;;;;;;4970975;28;20387;-75
2021/11/01 00:05:56;;;;;;;8.10;6.13;;;11.00;92.20;;;;;;4970935;28;20026;-75
2021/11/01 00:08:22;;;;;;;8.57;6.18;;;10.90;92.30;;;;;;4970954;28;20038;-75
2021/11/01 00:10:48;;;;;;;9.30;6.88;;;10.90;92.40;;;;;;4953790;28;20065;-75
2021/11/01 00:13:14;;;;;;;10.35;6.13;;;10.90;92.40;;;;;;4986234;28;20027;-75
2021/11/01 00:15:40;;;;;;;7.68;5.63;;;10.90;92.30;;;;;;4961701;28;20050;-75
2021/11/01 00:18:05;;;;;;;7.43;5.45;;;10.90;92.40;;;;;;4971213;28;20053;-74
2021/11/01 00:20:31;;;;;;;10.18;5.13;;;10.90;92.40;;;;;;4970845;28;20031;-74
2021/11/01 00:22:57;;;;;;;7.65;5.25;;;10.90;92.40;;;;;;4970464;28;20383;-75
2021/11/01 00:25:22;;;;;;;7.85;5.63;;;10.90;92.50;;;;;;4970792;28;20031;-75
2021/11/01 00:27:48;;;;;;;6.72;5.57;;;10.90;92.50;;;;;;4964693;28;20110;-74
2021/11/01 00:30:14;;;;;;;7.85;5.13;;;10.90;92.50;;;;;;4970662;28;20118;-74
2021/11/01 00:32:41;;;;;;;6.85;5.20;;;10.90;92.50;;;;;;4969382;28;20535;-74
2021/11/01 00:35:07;;;;;;;7.25;5.38;;;10.90;92.50;;;;;;4969352;28;20061;-74
2021/11/01 00:37:33;;;;;;;6.28;5.20;;;10.90;92.50;;;;;;4970978;28;20023;-74
2021/11/01 00:40:00;;;;;;;5.90;5.00;;;10.90;92.60;;;;;;4969473;28;20077;-74
2021/11/01 00:42:26;;;;;;;6.72;4.78;;;10.80;92.50;;;;;;4959800;28;20102;-74
2021/11/01 00:44:52;;;;;;;6.75;5.25;;;10.80;92.50;;;;;;4970427;28;20038;-75
2021/11/01 00:47:18;;;;;;;7.22;5.20;;;10.80;92.60;;;;;;4970614;28;20035;-74
2021/11/01 00:49:44;;;;;;;8.48;5.25;;;10.80;92.70;;;;;;4970857;28;20110;-75
2021/11/01 00:52:10;;;;;;;8.63;5.50;;;10.80;92.70;;;;;;4970670;28;20035;-75
2021/11/01 00:54:36;;;;;;;6.85;5.13;;;10.80;92.70;;;;;;4970431;28;20025;-74
2021/11/01 00:57:03;;;;;;;6.95;5.18;;;10.80;92.70;;;;;;4970580;28;20127;-75
2021/11/01 00:59:28;;;;;;;6.25;5.05;;;10.80;92.70;;;;;;4954198;28;20030;-75
2021/11/01 01:01:54;;;;;;;8.70;4.85;;;10.80;92.80;;;;;;4956931;28;20026;-75
2021/11/01 01:04:23;;;;;;;7.50;5.63;;;10.80;92.80;;;;;;4973730;28;20440;-75
2021/11/01 01:06:49;;;;;;;10.50;5.43;;;10.80;92.80;;;;;;4974152;28;20023;-75
2021/11/01 01:09:15;;;;;;;8.73;5.43;;;10.90;92.80;;;;;;4972474;28;20053;-74
2021/11/01 01:11:40;;;;;;;7.43;5.28;;;10.80;92.80;;;;;;4965002;28;20088;-75
2021/11/01 01:14:06;;;;;;;7.70;5.80;;;10.80;92.80;;;;;;4952469;28;20466;-75
2021/11/01 01:16:38;;;;;;;7.18;5.35;;;10.80;92.80;;;;;;4974063;28;20499;-75
2021/11/01 01:19:06;;;;;;;8.60;5.47;;;10.70;92.90;;;;;;4974044;28;20032;-75
2021/11/01 01:24:16;;;;;;;7.22;5.25;;;10.70;92.90;;;;;;4973405;28;20089;-74
2021/11/01 01:26:41;;;;;;;8.35;5.70;;;10.70;93.00;;;;;;4956135;28;20031;-75
2021/11/01 01:29:11;;;;;;;6.63;5.07;;;10.70;93.00;;;;;;4955930;28;20035;-75
2021/11/01 01:31:39;;;;;;;6.68;5.10;;;10.70;93.00;;;;;;4973882;28;20399;-75
2021/11/01 01:34:05;;;;;;;6.43;5.03;;;10.70;93.10;;;;;;4956194;28;20023;-76
2021/11/01 01:36:31;;;;;;;6.57;5.35;;;10.70;93.10;;;;;;4964902;28;20383;-74
2021/11/01 01:38:56;;;;;;;7.05;5.13;;;10.80;93.10;;;;;;4973592;28;20069;-75
2021/11/01 01:41:27;;;;;;;6.75;5.32;;;10.80;93.10;;;;;;4963773;28;20034;-75
2021/11/01 01:43:55;;;;;;;5.82;5.05;;;10.80;93.10;;;;;;4969043;28;20034;-74
2021/11/01 01:46:23;;;;;;;7.95;5.50;;;10.80;93.10;;;;;;4955340;28;20027;-73
2021/11/01 01:48:50;;;;;;;5.07;4.22;;;10.80;93.20;;;;;;4970910;28;20138;-74
2021/11/01 01:51:16;;;;;;;4.47;4.00;;;10.90;93.20;;;;;;4972854;28;20046;-73
2021/11/01 01:53:43;;;;;;;5.13;3.70;;;10.90;93.30;;;;;;4946015;28;20027;-74
2021/11/01 01:56:09;;;;;;;4.88;3.92;;;11.00;93.40;;;;;;4952372;28;20035;-74
2021/11/01 01:58:40;;;;;;;6.75;4.10;;;11.10;93.40;;;;;;4966411;28;20031;-74
2021/11/01 02:01:10;;;;;;;4.20;3.80;;;11.10;93.30;;;;;;4973134;28;20027;-74
2021/11/01 02:03:38;;;;;;;5.05;3.95;;;11.20;93.20;;;;;;4967544;28;20038;-74
2021/11/01 02:06:13;;;;;;;7.20;4.00;;;11.20;93.20;;;;;;4959026;28;20391;-74
2021/11/01 02:08:47;;;;;;;5.22;2.70;;;11.30;93.30;;;;;;4955524;28;20027;-74
2021/11/01 02:11:22;;;;;;;4.85;2.63;;;11.30;93.30;;;;;;4971536;28;20565;-74
2021/11/01 02:13:52;;;;;;;3.00;2.28;;;11.40;93.50;;;;;;4951444;28;20030;-74
2021/11/01 02:16:19;;;;;;;3.05;1.95;;;11.50;93.60;;;;;;4972337;28;20050;-74
2021/11/01 02:18:48;;;;;;;2.58;2.25;;;11.80;93.70;;;;;;4972728;28;20026;-73
2021/11/01 02:21:16;;;;;;;2.97;2.30;;;11.90;93.70;;;;;;4955491;28;20034;-74
2021/11/01 02:23:43;;;;;;;3.60;3.00;;;12.10;93.70;;;;;;4954714;28;20121;-74
2021/11/01 02:26:12;;;;;;;7.35;4.47;;;12.10;93.60;;;;;;4968000;28;20059;-74
2021/11/01 02:28:40;;;;;;;4.78;3.83;;;12.10;93.40;;;;;;4972444;28;20073;-75
2021/11/01 02:31:09;;;;;;;6.25;3.90;;;12.10;93.40;;;;;;4972516;28;20029;-74
2021/11/01 02:33:35;;;;;;;3.50;3.20;;;12.00;93.50;;;;;;4959070;28;20027;-74
2021/11/01 02:36:02;;;;;;;3.75;2.90;;;12.00;93.60;;;;;;4972112;28;20035;-74
2021/11/01 02:38:30;;;;;;;3.53;2.67;;;12.00;93.70;;;;;;4955256;28;20042;-74
2021/11/01 02:40:56;;;;;;;3.58;2.50;;;12.10;93.80;;;;;;4972344;28;20054;-73
2021/11/01 02:43:22;;;;;;;3.88;2.22;;;12.10;93.90;;;;;;4970627;28;20462;-74
2021/11/01 02:45:47;;;;;;;3.88;2.05;;;12.10;94.00;;;;;;4972190;28;20030;-74
2021/11/01 02:48:14;;;;;;;2.40;1.80;;;12.20;94.00;;;;;;4964018;28;20035;-74
2021/11/01 02:50:39;;;;;;;1.90;1.80;;;12.20;94.00;;;;;;4969601;28;20143;-74
2021/11/01 02:53:06;;;;;;;3.03;1.92;;;12.30;94.10;;;;;;4959586;28;20070;-75
2021/11/01 02:55:33;;;;;;;3.08;1.67;;;12.40;94.10;;;;;;4954569;28;20062;-74
2021/11/01 02:57:59;;;;;;;1.30;1.10;;;12.40;94.10;;;;;;4974633;28;20097;-74
2021/11/01 03:00:26;;;;;;;1.33;0.90;;;12.50;94.10;;;;;;4969286;28;20117;-74
2021/11/01 03:02:53;;;;;;;1.05;0.90;;;12.50;94.00;;;;;;4971568;28;20122;-74
2021/11/01 03:05:21;;;;;;;1.58;0.80;;;12.60;94.00;;;;;;4971465;28;20126;-74
2021/11/01 03:07:49;;;;;;;3.53;0.90;;;12.60;94.00;;;;;;4971812;28;20026;-74
2021/11/01 03:10:16;;;;;;;1.65;0.95;;;12.60;94.00;;;;;;4959611;28;20513;-74
2021/11/01 03:12:45;;;;;;;2.58;1.08;;;12.60;94.00;;;;;;4954130;28;20406;-74
2021/11/01 03:15:20;;;;;;;1.95;0.85;;;12.60;94.20;;;;;;4971456;28;20046;-74
2021/11/01 03:17:49;;;;;;;2.63;0.90;;;12.60;94.00;;;;;;4971558;28;20635;-74
2021/11/01 03:20:20;;;;;;;1.83;0.80;;;12.60;94.00;;;;;;4971726;28;20070;-75
2021/11/01 03:22:50;;;;;;;3.72;0.98;;;12.60;94.00;;;;;;4953637;28;20400;-74
2021/11/01 03:25:30;;;;;;;2.83;0.80;;;12.60;94.00;;;;;;4971449;28;20380;-74
2021/11/01 03:27:59;;;;;;;2.05;0.60;;;12.60;94.10;;;;;;4957398;28;20126;-74
2021/11/01 03:30:25;;;;;;;1.23;0.65;;;12.60;94.00;;;;;;4962572;28;20027;-74
2021/11/01 03:32:52;;;;;;;2.58;0.70;;;12.50;94.10;;;;;;4971246;28;20102;-74
2021/11/01 03:35:20;;;;;;;3.28;0.80;;;12.50;94.20;;;;;;4958805;28;20054;-72
2021/11/01 03:37:47;;;;;;;0.68;0.60;;;12.50;94.20;;;;;;4967919;28;20103;-72
2021/11/01 03:40:19;;;;;;;3.35;0.82;;;12.50;94.30;;;;;;4969348;28;20027;-72
2021/11/01 03:42:45;;;;;;;5.13;0.82;;;12.40;94.40;;;;;;4953302;28;20037;-73
2021/11/01 03:45:12;;;;;;;0.95;0.57;;;12.40;94.40;;;;;;4971300;28;20152;-72
2021/11/01 03:47:43;;;;;;;4.45;0.80;;;12.40;94.50;;;;;;4953528;28;20126;-73
2021/11/01 03:52:43;;;;;;;3.08;0.73;;;12.40;94.60;;;;;;4970657;28;20027;-72
2021/11/01 03:55:09;;;;;;;0.50;0.50;;;12.30;94.60;;;;;;4970862;28;20054;-73
2021/11/01 03:57:35;;;;;;;2.00;0.70;;;12.30;94.70;;;;;;4970878;28;20090;-73
2021/11/01 04:00:05;;;;;;;2.90;0.80;;;12.30;94.70;;;;;;4970714;28;20049;-73
2021/11/01 04:02:30;;;;;;;1.60;0.70;;;12.20;94.80;;;;;;4969574;28;20031;-73
2021/11/01 04:04:56;;;;;;;2.95;0.80;;;12.20;94.90;;;;;;4970576;28;20538;-73
2021/11/01 04:07:22;;;;;;;2.13;0.70;;;12.20;94.90;;;;;;4970924;28;20054;-73
2021/11/01 04:09:48;;;;;;;1.58;0.70;;;12.20;95.00;;;;;;4969931;28;20031;-73
2021/11/01 04:12:14;;;;;;;0.95;0.70;;;12.10;94.90;;;;;;4954509;28;20039;-72
2021/11/01 04:14:48;;;;;;;2.20;0.80;;;12.10;95.00;;;;;;4969189;28;20376;-73
2021/11/01 04:22:49;;;;;;;1.52;0.70;;;11.90;95.00;;;;;;4967028;28;20074;-73
2021/11/01 04:25:16;;;;;;;2.70;0.70;;;11.80;95.10;;;;;;4944210;28;20122;-72
2021/11/01 04:27:41;;;;;;;1.50;0.70;;;11.80;95.20;;;;;;4967546;28;20082;-73
2021/11/01 04:30:08;;;;;;;2.90;0.70;;;11.70;95.30;;;;;;4951466;28;20401;-72
2021/11/01 04:32:44;;;;;;;2.90;0.88;;;11.70;95.40;;;;;;4969857;28;20388;-72
2021/11/01 04:35:21;;;;;;;2.65;0.70;;;11.70;95.40;;;;;;4971237;28;20033;-72
2021/11/01 04:37:49;;;;;;;1.58;0.80;;;11.70;95.50;;;;;;4968177;28;20376;-72
2021/11/01 04:53:26;;;;;;;2.50;1.00;;;11.30;95.70;;;;;;4971619;28;20352;-72
2021/11/01 04:55:52;;;;;;;3.20;1.10;;;11.30;95.70;;;;;;4973879;28;20011;-72
2021/11/01 04:58:18;;;;;;;6.55;0.90;;;11.30;95.80;;;;;;4974267;28;20078;-72
2021/11/01 05:00:45;;;;;;;2.97;0.80;;;11.20;95.80;;;;;;4973714;28;20035;-72
2021/11/01 05:05:46;;;;;;;2.17;0.70;;;11.10;95.80;;;;;;4972862;28;20069;-72
2021/11/01 05:08:12;;;;;;;3.38;0.70;;;11.00;95.90;;;;;;4973585;28;20720;-72
2021/11/01 05:10:40;;;;;;;1.98;0.60;;;11.00;96.00;;;;;;4973621;28;20030;-72
2021/11/01 05:13:24;;;;;;;2.10;0.68;;;10.90;96.00;;;;;;4965451;28;20382;-72
2021/11/01 05:15:55;;;;;;;1.60;0.65;;;10.90;96.10;;;;;;4973774;28;20026;-72
2021/11/01 05:18:38;;;;;;;2.58;0.60;;;10.90;96.10;;;;;;4973714;28;20074;-72
2021/11/01 05:23:50;;;;;;;2.47;0.65;;;10.80;96.20;;;;;;4973899;28;20131;-72
2021/11/01 05:26:23;;;;;;;1.50;0.70;;;10.80;96.20;;;;;;4955219;28;20038;-72
2021/11/01 05:28:53;;;;;;;0.45;0.45;;;10.80;96.30;;;;;;4958502;28;20018;-72
2021/11/01 05:31:25;;;;;;;4.40;0.90;;;10.80;96.20;;;;;;4973227;28;20015;-72
2021/11/01 05:34:14;;;;;;;3.63;0.90;;;10.80;96.30;;;;;;4971489;28;20022;-72
2021/11/01 05:36:40;;;;;;;4.82;0.70;;;10.80;96.30;;;;;;4955823;28;20042;-72
2021/11/01 05:39:06;;;;;;;3.55;0.80;;;10.80;96.40;;;;;;4955869;28;20035;-72
2021/11/01 05:41:32;;;;;;;4.72;0.80;;;10.80;96.40;;;;;;4967108;28;20039;-73
2021/11/01 05:43:57;;;;;;;1.88;0.70;;;10.70;96.30;;;;;;4968425;28;20404;-72
2021/11/01 05:46:25;;;;;;;2.28;0.70;;;10.70;96.40;;;;;;4972984;28;20031;-72
2021/11/01 05:48:52;;;;;;;4.10;0.90;;;10.70;96.40;;;;;;4972876;28;20097;-72
2021/11/01 05:53:50;;;;;;;2.25;0.80;;;10.70;96.50;;;;;;5008929;28;20494;-74
2021/11/01 05:56:33;;;;;;;3.60;0.88;;;10.60;96.40;;;;;;4994029;28;20033;-74
2021/11/01 06:14:50;;;;;;;3.33;0.80;;;10.50;96.40;;;;;;5010197;28;20080;-76
2021/11/01 06:17:16;;;;;;;2.80;0.60;;;10.50;96.40;;;;;;5011503;28;20440;-75
2021/11/01 06:19:42;;;;;;;2.22;1.08;;;10.40;96.40;;;;;;5011395;28;20052;-73
2021/11/01 06:22:07;;;;;;;4.97;1.05;;;10.40;96.40;;;;;;4989435;28;20474;-73
2021/11/01 06:27:02;;;;;;;1.55;0.60;;;10.30;96.40;;;;;;5003500;28;20359;-74
2021/11/01 06:29:31;;;;;;;3.67;0.63;;;10.30;96.40;;;;;;5021344;28;20026;-73
2021/11/01 06:32:28;;;;;;;1.83;0.70;;;10.20;96.50;;;;;;4993978;28;20014;-74
2021/11/01 06:43:09;;;;;;;2.15;0.88;;;10.10;96.40;;;;;;4996980;28;20497;-73
2021/11/01 06:45:42;;;;;;;1.75;0.70;;;10.10;96.50;;;;;;5004765;28;20033;-73
2021/11/01 06:56:33;;;;;;;2.75;0.75;;;10.00;96.30;;;;;;5008362;28;20085;-74
2021/11/01 07:15:15;;;;;;;3.55;0.80;;;10.00;96.50;;;;;;5002725;28;20096;-72
2021/11/01 07:17:48;;;;;;;2.67;0.70;;;9.90;96.40;;;;;;5006952;28;20025;-74
2021/11/01 07:20:25;;;;;;;2.08;0.70;;;9.90;96.40;;;;;;5007214;28;20042;-71
2021/11/01 08:49:52;;;;;;;4.93;1.50;;;9.70;97.10;;;;;;4965775;28;20040;-74
2021/11/01 09:09:43;;;;;;;5.32;1.20;;;9.80;97.20;;;;;;5012942;28;20044;-75
2021/11/01 09:21:43;;;;;;;2.25;0.80;;;9.80;97.20;;;;;;5011202;28;20080;-71
2021/11/01 09:26:42;;;;;;;2.88;0.98;;;9.80;97.20;;;;;;5012213;28;20045;-71
2021/11/01 09:40:55;;;;;;;2.67;1.30;;;9.80;97.30;;;;;;5016905;28;20030;-72
2021/11/01 09:42:30;;;;;;;6.13;1.85;;;9.70;97.30;;;;;;5010102;28;20052;-72
2021/11/01 09:44:56;;;;;;;5.82;2.83;;;9.80;97.50;;;;;;5007606;28;20041;-73
2021/11/01 09:47:23;;;;;;;14.18;5.55;;;9.80;97.40;;;;;;5008835;28;20069;-71
2021/11/01 09:49:50;;;;;;;3.28;2.30;;;9.80;97.50;;;;;;5010737;28;20024;-72
2021/11/01 09:52:16;;;;;;;3.53;2.13;;;9.80;97.50;;;;;;5006384;28;20048;-71
2021/11/01 09:54:43;;;;;;;2.70;1.23;;;9.90;97.40;;;;;;5010709;28;20026;-73
2021/11/01 09:57:21;;;;;;;4.43;2.00;;;9.80;97.40;;;;;;5016929;28;20442;-72
2021/11/01 09:59:48;;;;;;;6.00;3.00;;;9.90;97.40;;;;;;4995081;28;20490;-73
2021/11/01 10:02:46;;;;;;;6.00;2.83;;;9.90;97.40;;;;;;4986188;28;20092;-77
2021/11/01 10:05:46;;;;;;;6.40;3.85;;;9.90;97.50;;;;;;4983775;28;20042;-73
2021/11/01 10:08:18;;;;;;;6.50;3.30;;;9.90;97.50;;;;;;4987200;28;20049;-73
2021/11/01 10:10:44;;;;;;;4.97;2.22;;;9.90;97.40;;;;;;5007467;28;20213;-73
2021/11/01 10:13:14;;;;;;;3.88;2.67;;;9.90;97.40;;;;;;4984110;28;20120;-74
2021/11/01 10:18:25;;;;;;;1.25;1.15;;;10.00;97.50;;;;;;5006318;28;20052;-73
2021/11/01 10:20:58;;;;;;;1.77;0.80;;;9.90;97.50;;;;;;5004492;28;20037;-73
2021/11/01 10:23:30;;;;;;;1.95;1.00;;;10.10;97.60;;;;;;5013501;28;20022;-75
2021/11/01 10:26:17;;;;;;;1.75;1.02;;;10.10;97.60;;;;;;4997886;28;20053;-75
2021/11/01 10:28:53;;;;;;;3.00;1.60;;;10.10;97.60;;;;;;5000880;28;20394;-74
2021/11/01 10:31:23;;;;;;;3.60;1.00;;;10.20;97.60;;;;;;5009057;28;20054;-74
2021/11/01 10:34:11;;;;;;;3.25;1.38;;;10.20;97.50;;;;;;5006028;28;20032;-74
2021/11/01 10:36:40;;;;;;;4.55;1.60;;;10.20;97.50;;;;;;5005677;28;20048;-73
2021/11/01 10:39:11;;;;;;;3.17;1.52;;;10.20;97.50;;;;;;5007154;28;20040;-69
2021/11/01 10:41:47;;;;;;;4.43;2.08;;;10.20;97.50;;;;;;5012067;28;20088;-71
2021/11/01 10:44:41;;;;;;;4.32;1.63;;;10.20;97.50;;;;;;4984214;28;20021;-72
2021/11/01 11:30:32;;;;;;;3.50;0.90;;;10.20;97.50;;;;;;5006619;28;20045;-72
2021/11/01 11:49:42;;;;;;;3.13;1.40;;;10.00;97.20;;;;;;5010327;28;20076;-72
2021/11/01 11:52:13;;;;;;;2.63;0.90;;;10.00;97.30;;;;;;5095585;23;20176;-86
2021/11/01 11:54:47;;;;;;;2.35;1.10;;;10.10;97.30;;;;;;4997731;28;20386;-87
2021/11/01 11:57:30;;;;;;;1.55;0.70;;;10.10;97.30;;;;;;4998489;28;20037;-86
2021/11/01 11:59:59;;;;;;;4.07;2.40;;;10.10;97.30;;;;;;5001631;28;20054;-86
2021/11/01 12:02:44;;;;;;;1.33;0.80;;;10.10;97.30;;;;;;4997428;28;20120;-87
2021/11/01 12:05:25;;;;;;;4.32;0.70;;;10.20;97.30;;;;;;5008166;28;20137;-85
2021/11/01 12:08:20;;;;;;;1.67;0.75;;;10.20;97.30;;;;;;5008329;28;20026;-90
2021/11/01 12:19:18;;;;;;;2.20;1.20;;;10.20;97.20;;;;;;4978915;28;20003;-90
2021/11/01 12:21:51;;;;;;;2.50;2.30;;;10.20;97.20;;;;;;4989771;28;20087;-91
2021/11/01 12:24:29;;;;;;;1.70;1.60;;;10.20;97.20;;;;;;4987253;28;20122;-92
2021/11/01 12:27:09;;;;;;;3.80;3.08;;;10.20;97.20;;;;;;4993965;28;20505;-91
2021/11/01 12:29:36;;;;;;;2.78;1.02;;;10.30;97.30;;;;;;4999977;28;20026;-88
2021/11/01 12:32:07;;;;;;;3.13;0.80;;;10.30;97.20;;;;;;4994931;28;20030;-88
2021/11/01 12:34:39;;;;;;;1.67;0.90;;;10.20;97.20;;;;;;4992808;28;20516;-86
2021/11/01 12:37:11;;;;;;;3.28;1.23;;;10.30;97.20;;;;;;5001547;28;20026;-87
2021/11/01 12:57:00;;;;;;;7.28;4.57;;;10.30;97.10;;;;;;5000117;28;20506;-87
2021/11/01 12:59:40;;;;;;;4.05;2.50;;;10.30;97.20;;;;;;5013380;28;20568;-86
2021/11/01 13:02:13;;;;;;;3.80;2.10;;;10.20;97.10;;;;;;4993818;28;20053;-87
2021/11/01 13:04:39;;;;;;;4.13;1.90;;;10.30;97.10;;;;;;5000491;28;20402;-89
2021/11/01 13:12:47;;;;;;;0.80;0.70;;;10.30;97.00;;;;;;5013808;28;20037;-88
2021/11/01 13:18:14;;;;;;;3.67;1.20;;;10.30;97.00;;;;;;5016172;28;20041;-88
2021/11/01 13:20:52;;;;;;;1.55;1.13;;;10.30;97.20;;;;;;4996661;28;20446;-87
2021/11/01 13:23:19;;;;;;;2.55;1.17;;;10.30;97.00;;;;;;4989888;28;20086;-86
2021/11/01 13:39:45;;;;;;;4.13;2.75;;;10.30;97.00;;;;;;5008242;28;20034;-87
2021/11/01 13:42:14;;;;;;;4.75;2.85;;;10.30;96.90;;;;;;4990746;28;20452;-87
2021/11/01 13:44:40;;;;;;;2.03;1.67;;;10.30;96.90;;;;;;4995701;28;20037;-87
2021/11/01 13:47:07;;;;;;;2.25;1.90;;;10.20;97.00;;;;;;4998434;28;20340;-86
2021/11/01 13:49:35;;;;;;;1.73;1.45;;;10.20;96.90;;;;;;4995053;28;20409;-85
2021/11/01 13:57:38;;;;;;;3.10;2.08;;;10.30;97.00;;;;;;5012987;28;20029;-86
2021/11/01 14:11:02;;;;;;;3.90;1.35;;;10.20;96.80;;;;;;5009879;28;20107;-87
2021/11/01 14:18:42;;;;;;;1.60;1.50;;;10.20;96.90;;;;;;5012735;28;20085;-86
2021/11/01 14:29:40;;;;;;;4.20;3.10;;;10.20;97.00;;;;;;5009315;28;20040;-89
2021/11/01 15:20:21;;;;;;;1.92;1.42;;;10.20;97.00;;;;;;4995813;28;20057;-69
2021/11/01 15:23:13;;;;;;;1.55;0.95;;;10.10;97.00;;;;;;4995980;28;20019;-69
2021/11/01 16:17:24;;;;;;;4.18;2.97;;;9.90;96.90;;;;;;5001886;28;20045;-72
2021/11/01 16:19:51;;;;;;;6.20;3.72;;;9.90;96.80;;;;;;5001745;28;20029;-72
2021/11/01 16:22:18;;;;;;;7.15;3.83;;;9.90;96.80;;;;;;5009973;28;20026;-70
2021/11/01 16:24:48;;;;;;;2.45;2.03;;;9.90;96.90;;;;;;5000165;28;20030;-71
2021/11/01 16:27:16;;;;;;;5.90;3.03;;;10.00;96.90;;;;;;4985009;28;20025;-69
2021/11/01 16:30:31;;;;;;;3.70;3.30;;;10.00;96.90;;;;;;5006178;28;20474;-71
2021/11/01 16:32:36;;;;;;;3.72;2.30;;;10.00;96.80;;;;;;4999337;28;20042;-71
2021/11/01 16:35:07;;;;;;;7.95;4.55;;;10.00;96.80;;;;;;5013931;28;20477;-71
2021/11/01 16:40:10;;;;;;;2.22;1.90;;;9.90;96.70;;;;;;5005245;28;20118;-70
2021/11/01 16:42:39;;;;;;;5.20;3.00;;;10.00;97.00;;;;;;5004354;28;20034;-71
2021/11/01 16:45:25;;;;;;;5.07;3.55;;;10.00;96.80;;;;;;5010624;28;20025;-72
2021/11/01 16:47:51;;;;;;;2.53;2.13;;;9.90;96.80;;;;;;5010210;28;20018;-71
2021/11/01 16:50:18;;;;;;;4.85;3.70;;;9.90;96.80;;;;;;4988113;28;20399;-72
2021/11/01 16:52:46;;;;;;;4.85;2.67;;;9.90;96.70;;;;;;5002143;28;20475;-73
2021/11/01 16:55:24;;;;;;;2.90;2.10;;;9.90;96.80;;;;;;5011444;28;20029;-73
2021/11/01 16:57:55;;;;;;;4.05;2.67;;;9.90;96.70;;;;;;4999605;28;20018;-70
2021/11/01 17:00:30;;;;;;;3.47;2.55;;;9.90;96.70;;;;;;5002770;28;20080;-72
2021/11/01 17:06:09;;;;;;;4.93;2.90;;;9.80;96.70;;;;;;4994374;28;20026;-70
2021/11/01 17:09:03;;;;;;;4.07;2.70;;;9.80;96.80;;;;;;5013342;28;20117;-72
2021/11/01 18:39:18;;;;;;;6.97;3.40;;;9.70;97.10;;;;;;4983822;28;20061;-71
2021/11/01 18:41:56;;;;;;;4.63;3.25;;;9.70;97.10;;;;;;4972741;28;20037;-73
2021/11/01 18:52:42;;;;;;;3.60;2.90;;;9.70;97.10;;;;;;4967139;28;20046;-74
2021/11/01 18:55:11;;;;;;;5.90;2.75;;;9.70;97.00;;;;;;4970804;28;20019;-73
2021/11/01 18:57:38;;;;;;;3.55;2.75;;;9.70;97.10;;;;;;4989997;28;20045;-73
2021/11/01 19:00:07;;;;;;;5.05;3.17;;;9.70;97.10;;;;;;4972597;28;20041;-73
2021/11/01 19:02:45;;;;;;;5.68;3.42;;;9.70;97.10;;;;;;4970017;28;20030;-74
2021/11/01 19:05:30;;;;;;;4.03;2.67;;;9.70;97.10;;;;;;4955984;28;20486;-74
2021/11/01 21:26:22;;;;;;;7.45;4.88;;;8.90;97.10;;;;;;4991615;28;20033;-75
2021/11/01 21:28:50;;;;;;;7.53;5.85;;;8.90;97.20;;;;;;4973610;28;20050;-74
2021/11/01 21:31:16;;;;;;;8.70;4.88;;;8.90;97.20;;;;;;4991141;28;20027;-75
2021/11/01 21:33:44;;;;;;;6.43;5.28;;;8.90;97.20;;;;;;4971825;28;20018;-75
2021/11/01 21:36:12;;;;;;;5.00;3.75;;;8.90;97.20;;;;;;4973252;28;20165;-74
2021/11/01 21:38:38;;;;;;;6.50;3.90;;;8.80;97.20;;;;;;4973452;28;20023;-75
2021/11/01 21:41:04;;;;;;;7.25;4.57;;;8.80;97.20;;;;;;4973047;28;20084;-75
2021/11/01 21:43:30;;;;;;;6.90;4.13;;;8.80;97.20;;;;;;4971814;28;20038;-75
2021/11/01 21:45:56;;;;;;;5.55;4.35;;;8.80;97.30;;;;;;4994165;28;20161;-75
2021/11/01 21:48:23;;;;;;;5.43;4.20;;;8.80;97.40;;;;;;4992812;28;20030;-75
2021/11/01 21:50:49;;;;;;;4.88;3.80;;;8.80;97.40;;;;;;4973352;28;20031;-75
2021/11/01 21:53:19;;;;;;;7.40;3.88;;;8.80;97.40;;;;;;4964312;28;20487;-75
2021/11/01 21:55:45;;;;;;;6.15;3.70;;;8.80;97.40;;;;;;4970777;28;20034;-75
2021/11/01 22:17:36;;;;;;;6.97;4.53;;;8.70;97.40;;;;;;4990952;28;20096;-75
2021/11/01 22:20:06;;;;;;;7.22;4.30;;;8.70;97.40;;;;;;4974611;28;20042;-75
2021/11/01 22:25:07;;;;;;;4.90;3.95;;;8.60;97.30;;;;;;4986023;28;20646;-75
2021/11/01 22:41:25;;;;;;;7.00;4.18;;;8.50;97.40;;;;;;4989424;28;20049;-76
2021/11/01 22:57:32;;;;;;;5.40;3.42;;;8.40;97.50;;;;;;4989136;28;20434;-74
2021/11/01 23:00:00;;;;;;;5.88;3.60;;;8.40;97.50;;;;;;4973704;28;20030;-76
2021/11/01 23:02:25;;;;;;;6.65;3.55;;;8.30;97.40;;;;;;4973747;28;20030;-75
2021/11/01 23:04:57;;;;;;;7.32;3.35;;;8.30;97.40;;;;;;4973019;28;20463;-75
2021/11/01 23:32:30;;;;;;;2.75;2.50;;;8.00;97.30;;;;;;4990896;28;20029;-74
2021/11/01 23:34:55;;;;;;;2.40;2.20;;;8.00;97.30;;;;;;4989864;28;20030;-74
2021/11/01 23:37:21;;;;;;;3.20;2.10;;;8.00;97.30;;;;;;4973317;28;20127;-75
2021/11/01 23:39:47;;;;;;;2.88;2.40;;;8.00;97.30;;;;;;4972768;28;20042;-76
2021/11/01 23:42:12;;;;;;;3.25;2.22;;;7.90;97.30;;;;;;4973275;28;20498;-74
2021/11/01 23:44:38;;;;;;;3.33;2.17;;;7.90;97.20;;;;;;4972396;28;20057;-75
2021/11/01 23:47:03;;;;;;;2.20;2.00;;;7.90;97.20;;;;;;4982940;28;20030;-75
2021/11/01 23:49:29;;;;;;;3.45;2.10;;;7.80;97.20;;;;;;4973150;28;20030;-75
2021/11/01 23:52:12;;;;;;;2.53;1.83;;;7.80;97.20;;;;;;4972744;28;20034;-75
2021/11/01 23:54:44;;;;;;;2.38;2.13;;;7.80;97.20;;;;;;4962251;28;20023;-75
2021/11/01 23:57:19;;;;;;;2.20;2.10;;;7.80;97.20;;;;;;4973055;28;20495;-75
2021/11/01 23:59:46;;;;;;;4.32;2.47;;;7.80;97.30;;;;;;4969517;28;20040;-77
